createdAt,value
2023-02-23T00:08:13.020Z,6.30
2023-02-23T00:18:18.617Z,6.40
2023-02-23T00:28:24.266Z,5.30
2023-02-23T00:38:35.016Z,6.70
2023-02-23T00:48:40.628Z,8.60
2023-02-23T00:58:46.356Z,6.60
2023-02-23T01:08:56.870Z,7.30
2023-02-23T01:19:05.075Z,7.80
2023-02-23T01:29:12.920Z,7.10
2023-02-23T01:39:20.891Z,7.60
2023-02-23T01:49:30.506Z,7.50
2023-02-23T01:59:40.252Z,8.60
2023-02-23T02:10:08.437Z,8.80
2023-02-23T02:20:38.843Z,7.30
2023-02-23T02:31:25.402Z,8.90
2023-02-23T02:41:42.480Z,7.50
2023-02-23T02:51:55.406Z,8.20
2023-02-23T03:02:18.892Z,8.60
2023-02-23T03:12:52.361Z,7.80
2023-02-23T03:23:22.086Z,7.90
2023-02-23T03:33:53.860Z,7.90
2023-02-23T03:44:20.844Z,6.80
2023-02-23T03:54:51.810Z,9.00
2023-02-23T04:05:17.321Z,9.50
2023-02-23T04:15:28.126Z,9.60
2023-02-23T04:25:33.956Z,10.30
2023-02-23T04:35:40.274Z,9.20
2023-02-23T04:45:46.766Z,10.00
2023-02-23T04:55:52.435Z,10.10
2023-02-23T05:16:02.507Z,12.00
2023-02-23T05:26:10.578Z,10.40
2023-02-23T05:36:18.522Z,12.70
2023-02-23T05:46:26.236Z,12.70
2023-02-23T05:56:31.900Z,12.40
2023-02-23T06:06:37.877Z,11.90
2023-02-23T06:16:45.376Z,11.30
2023-02-23T06:26:51.205Z,13.40
2023-02-23T06:36:56.843Z,11.90
2023-02-23T06:47:02.426Z,12.70
2023-02-23T06:57:08.246Z,11.00
2023-02-23T07:07:14.189Z,12.40
2023-02-23T07:17:19.910Z,11.60
2023-02-23T07:27:27.729Z,10.40
2023-02-23T07:44:40.941Z,12.90
2023-02-23T07:54:46.628Z,12.80
2023-02-23T08:04:54.099Z,11.30
2023-02-23T08:14:59.786Z,12.40
2023-02-23T08:25:06.212Z,11.80
2023-02-23T08:35:12.937Z,10.30
2023-02-23T08:45:19.704Z,11.20
2023-02-23T08:55:25.361Z,9.30
2023-02-23T09:05:31.022Z,9.00
2023-02-23T09:15:36.992Z,11.20
2023-02-23T09:25:44.331Z,10.30
2023-02-23T09:35:50.399Z,10.10
2023-02-23T09:46:03.841Z,10.60
2023-02-23T09:56:14.535Z,10.80
2023-02-23T10:06:21.905Z,11.40
2023-02-23T10:16:37.485Z,10.40
2023-02-23T10:26:48.429Z,9.10
2023-02-23T10:36:59.628Z,9.90
2023-02-23T10:47:12.366Z,9.20
2023-02-23T10:57:26.616Z,9.70
2023-02-23T11:07:33.999Z,10.30
2023-02-23T11:17:40.850Z,9.30
2023-02-23T11:27:51.593Z,10.70
2023-02-23T11:37:58.157Z,9.80
2023-02-23T11:48:06.157Z,9.60
2023-02-23T11:58:24.239Z,10.00
2023-02-23T12:08:40.771Z,9.00
2023-02-23T12:18:55.210Z,8.30
2023-02-23T12:29:06.816Z,8.80
2023-02-23T12:39:22.649Z,8.90
2023-02-23T12:49:37.361Z,8.30
2023-02-23T13:00:24.812Z,8.00
2023-02-23T13:20:45.153Z,9.30
2023-02-23T13:30:51.109Z,10.20
2023-02-23T13:41:06.625Z,9.60
2023-02-23T13:51:21.579Z,9.50
2023-02-23T14:01:31.053Z,7.90
2023-02-23T14:11:47.388Z,8.50
2023-02-23T14:22:00.010Z,11.00
2023-02-23T14:32:21.278Z,10.00
2023-02-23T14:42:30.790Z,9.00
2023-02-23T14:52:41.975Z,10.40
2023-02-23T15:02:59.904Z,10.50
2023-02-23T15:13:13.198Z,11.80
2023-02-23T15:23:21.613Z,10.10
2023-02-23T15:33:30.413Z,11.80
2023-02-23T15:43:36.761Z,11.20
2023-02-23T15:53:43.242Z,12.60
2023-02-23T16:04:00.274Z,11.90
2023-02-23T16:14:15.529Z,13.60
2023-02-23T16:24:23.698Z,13.40
2023-02-23T16:34:34.269Z,15.60
2023-02-23T16:44:43.798Z,16.70
2023-02-23T16:54:54.482Z,17.00
2023-02-23T17:05:01.271Z,16.30
2023-02-23T17:15:12.338Z,18.80
2023-02-23T17:25:18.323Z,18.10
2023-02-23T17:35:24.724Z,21.50
2023-02-23T17:45:32.105Z,24.60
2023-02-23T17:55:37.741Z,22.90
2023-02-23T18:05:43.508Z,23.10
2023-02-23T18:15:54.146Z,20.90
2023-02-23T18:26:07.682Z,21.40
2023-02-23T18:36:22.633Z,19.40
2023-02-23T18:46:28.798Z,22.80
2023-02-23T18:56:34.793Z,20.00
2023-02-23T19:06:42.549Z,23.60
2023-02-23T19:16:49.144Z,22.80
2023-02-23T19:26:54.748Z,24.10
2023-02-23T19:37:00.352Z,22.80
2023-02-23T19:47:06.124Z,23.40
2023-02-23T19:57:11.766Z,24.00
2023-02-23T20:07:17.997Z,23.80
2023-02-23T20:17:23.818Z,25.40
2023-02-23T20:27:30.155Z,23.70
2023-02-23T20:37:44.589Z,24.90
2023-02-23T20:47:53.373Z,27.30
2023-02-23T20:58:02.363Z,25.90
2023-02-23T21:08:10.138Z,26.40
2023-02-23T21:18:16.253Z,27.20
2023-02-23T21:28:22.082Z,27.40
2023-02-23T21:38:28.232Z,30.60
2023-02-23T21:48:34.180Z,35.10
2023-02-23T21:58:40.895Z,36.40
2023-02-23T22:08:48.163Z,37.10
2023-02-23T22:18:53.970Z,36.90
2023-02-23T22:28:59.895Z,31.50
2023-02-23T22:39:09.966Z,30.10
2023-02-23T22:49:16.392Z,32.60
2023-02-23T22:59:22.070Z,31.30
2023-02-23T23:09:28.248Z,32.20
2023-02-23T23:19:39.077Z,29.00
2023-02-23T23:29:46.833Z,31.90
2023-02-23T23:39:59.349Z,31.40
2023-02-23T23:50:10.810Z,28.90
